Time;durP1;ratioP1;P1;durP2;ratioP2;P2;SDS_P1;SDS_P2;PMS_P1;PMS_P2;Temp;Humidity;BMP_temperature;BMP_pressure;BME280_temperature;BME280_humidity;BME280_pressure;Samples;Min_cycle;Max_cycle;Signal;HPM_P1;HPM_P2
2022/05/22 00:00:22;;;;;;;;;;;;;;;20.24;68.54;152741.81;1797300;79;20187;-67
2022/05/22 00:02:50;;;;;;;;;;;;;;;20.21;68.50;152732.66;1797013;79;20207;-71
2022/05/22 00:05:19;;;;;;;;;;;;;;;20.13;68.43;152713.05;1797200;79;20468;-70
2022/05/22 00:07:46;;;;;;;;;;;;;;;20.08;68.33;152700.00;1797496;79;20198;-74
2022/05/22 00:10:14;;;;;;;;;;;;;;;20.02;68.04;152686.95;1797287;79;21186;-71
2022/05/22 00:12:41;;;;;;;;;;;;;;;19.99;67.91;152679.08;1796518;79;20199;-70
2022/05/22 00:15:10;;;;;;;;;;;;;;;19.93;62.85;152662.12;1797483;79;20223;-66
2022/05/22 00:17:37;;;;;;;;;;;;;;;19.91;61.86;152658.19;1797278;79;20456;-67
2022/05/22 00:20:05;;;;;;;;;;;;;;;19.92;59.15;152659.53;1797472;79;20242;-67
2022/05/22 00:22:33;;;;;;;;;;;;;;;19.92;57.46;152660.81;1796501;79;21830;-67
2022/05/22 00:25:00;;;;;;;;;;;;;;;19.92;56.49;152660.81;1796662;79;20191;-68
2022/05/22 00:27:27;;;;;;;;;;;;;;;19.89;56.32;152652.92;1796783;79;20209;-67
2022/05/22 00:29:54;;;;;;;;;;;;;;;19.87;55.85;152648.98;1766614;79;20180;-68
2022/05/22 00:32:21;;;;;;;;;;;;;;;19.84;55.40;152641.16;1751107;81;20208;-66
2022/05/22 00:34:49;;;;;;;;;;;;;;;19.76;55.00;152621.56;1751657;82;21228;-72
2022/05/22 00:37:16;;;;;;;;;;;;;;;19.65;54.93;152592.86;1750972;81;20196;-72
2022/05/22 00:39:45;;;;;;;;;;;;;;;19.54;55.19;152564.13;1750973;81;20243;-71
2022/05/22 00:42:18;;;;;;;;;;;;;;;19.44;55.09;152539.31;1750770;81;20166;-73
2022/05/22 00:44:44;;;;;;;;;;;;;;;19.35;54.03;152517.16;1751022;81;20211;-72
2022/05/22 00:47:13;;;;;;;;;;;;;;;19.22;53.64;152483.19;1750949;81;20141;-70
2022/05/22 00:49:43;;;;;;;;;;;;;;;19.08;52.68;152449.23;1750415;81;20499;-72
2022/05/22 00:52:15;;;;;;;;;;;;;;;18.98;52.37;152424.44;1750947;81;20188;-70
2022/05/22 00:54:56;;;;;;;;;;;;;;;18.89;52.67;152402.19;1750511;82;20660;-70
2022/05/22 00:57:32;;;;;;;;;;;;;;;18.80;52.36;152378.72;1750941;82;20132;-72
2022/05/22 01:00:00;;;;;;;;;;;;;;;18.65;52.34;152340.89;1750789;81;21170;-71
2022/05/22 01:02:27;;;;;;;;;;;;;;;18.53;52.71;152310.88;1750645;80;20164;-72
2022/05/22 01:04:54;;;;;;;;;;;;;;;18.43;53.07;152284.75;1750618;81;20188;-72
2022/05/22 01:07:21;;;;;;;;;;;;;;;18.33;53.43;152261.28;1750856;82;20637;-69
2022/05/22 01:09:49;;;;;;;;;;;;;;;18.26;53.89;152243.03;1750786;80;20180;-68
2022/05/22 01:12:18;;;;;;;;;;;;;;;18.22;54.22;152232.56;1750941;82;21269;-68
2022/05/22 01:14:47;;;;;;;;;;;;;;;18.19;54.56;152224.75;1751106;81;20164;-67
2022/05/22 01:17:16;;;;;;;;;;;;;;;18.13;54.99;152209.11;1750843;81;20385;-71
2022/05/22 01:19:58;;;;;;;;;;;;;;;18.11;55.39;152203.89;1750554;81;20514;-70
2022/05/22 01:22:26;;;;;;;;;;;;;;;18.05;55.81;152189.53;1751253;80;20104;-72
2022/05/22 01:24:54;;;;;;;;;;;;;;;18.01;56.11;152179.06;1750670;82;21223;-71
2022/05/22 01:27:21;;;;;;;;;;;;;;;17.99;56.24;152175.13;1750780;82;20409;-71
2022/05/22 01:30:14;;;;;;;;;;;;;;;17.95;56.46;152164.70;1750792;80;20460;-69
2022/05/22 01:32:43;;;;;;;;;;;;;;;17.89;56.78;152149.06;1751279;81;20747;-67
2022/05/22 01:35:12;;;;;;;;;;;;;;;17.84;57.10;152136.03;1751463;82;20176;-67
2022/05/22 01:37:38;;;;;;;;;;;;;;;17.82;57.37;152130.81;1751279;81;21985;-68
2022/05/22 01:40:09;;;;;;;;;;;;;;;17.80;57.57;152125.61;1750551;81;20184;-68
2022/05/22 01:42:38;;;;;;;;;;;;;;;17.78;57.76;152121.67;1751157;81;20148;-70
2022/05/22 01:45:06;;;;;;;;;;;;;;;17.78;57.77;152120.34;1750583;82;20248;-69
2022/05/22 01:47:34;;;;;;;;;;;;;;;17.75;57.94;152113.84;1750879;81;20460;-67
2022/05/22 01:50:01;;;;;;;;;;;;;;;17.75;58.12;152113.84;1750310;81;21828;-67
2022/05/22 01:52:28;;;;;;;;;;;;;;;17.71;58.38;152104.70;1749871;82;20181;-67
2022/05/22 01:54:55;;;;;;;;;;;;;;;17.66;58.73;152091.69;1750427;81;20211;-67
2022/05/22 01:57:22;;;;;;;;;;;;;;;17.64;58.88;152086.47;1750288;82;20184;-67
2022/05/22 01:59:48;;;;;;;;;;;;;;;17.61;59.19;152078.66;1749816;81;20222;-66
2022/05/22 02:02:23;;;;;;;;;;;;;;;17.57;59.31;152069.50;1751388;82;21180;-67
2022/05/22 02:04:52;;;;;;;;;;;;;;;17.55;59.48;152062.97;1750914;82;20151;-67
2022/05/22 02:10:07;;;;;;;;;;;;;;;17.47;59.78;152044.72;1750877;81;20611;-68
2022/05/22 02:12:35;;;;;;;;;;;;;;;17.41;60.13;152027.77;1751542;82;20168;-72
2022/05/22 02:15:05;;;;;;;;;;;;;;;17.40;60.34;152025.16;1751115;82;22180;-68
2022/05/22 02:17:33;;;;;;;;;;;;;;;17.37;60.62;152018.67;1751261;81;20619;-67
2022/05/22 02:20:00;;;;;;;;;;;;;;;17.35;61.03;152013.41;1751133;80;20461;-71
2022/05/22 02:22:50;;;;;;;;;;;;;;;17.37;61.24;152018.67;1750557;80;20180;-69
2022/05/22 02:25:23;;;;;;;;;;;;;;;17.36;61.65;152016.06;1751275;82;20497;-68
2022/05/22 02:27:52;;;;;;;;;;;;;;;17.35;61.80;152013.41;1750884;81;21803;-70
2022/05/22 02:30:21;;;;;;;;;;;;;;;17.34;61.98;152010.81;1750915;80;20257;-69
2022/05/22 02:32:48;;;;;;;;;;;;;;;17.39;62.11;152023.89;1751095;82;20208;-70
2022/05/22 02:35:15;;;;;;;;;;;;;;;17.42;62.05;152030.37;1751411;81;20166;-71
2022/05/22 02:37:43;;;;;;;;;;;;;;;17.42;62.15;152031.70;1751220;81;20123;-68
2022/05/22 02:40:12;;;;;;;;;;;;;;;17.44;62.16;152035.58;1750479;81;21112;-69
2022/05/22 02:42:42;;;;;;;;;;;;;;;17.37;62.43;152018.67;1750372;81;20144;-68
2022/05/22 02:45:10;;;;;;;;;;;;;;;17.40;62.60;152026.48;1751513;82;20200;-69
2022/05/22 02:47:37;;;;;;;;;;;;;;;17.42;62.67;152031.70;1750903;82;21303;-68
2022/05/22 02:50:06;;;;;;;;;;;;;;;17.41;62.88;152027.77;1751301;81;20672;-69
2022/05/22 02:52:33;;;;;;;;;;;;;;;17.44;62.74;152036.91;1751263;81;21044;-70
2022/05/22 02:55:01;;;;;;;;;;;;;;;17.42;62.90;152031.70;1751024;80;20144;-70
2022/05/22 02:57:30;;;;;;;;;;;;;;;17.45;62.99;152039.52;1750698;82;20172;-70
2022/05/22 02:59:59;;;;;;;;;;;;;;;17.44;62.95;152036.91;1751004;81;20356;-69
2022/05/22 03:02:28;;;;;;;;;;;;;;;17.40;63.17;152026.48;1749579;81;20179;-68
2022/05/22 03:04:54;;;;;;;;;;;;;;;17.36;63.26;152014.75;1733383;82;21267;-70
2022/05/22 03:07:21;;;;;;;;;;;;;;;17.31;63.43;152004.31;1751101;81;20149;-70
2022/05/22 03:09:48;;;;;;;;;;;;;;;17.26;63.47;151989.97;1750799;80;20208;-71
2022/05/22 03:12:18;;;;;;;;;;;;;;;17.21;63.77;151976.94;1751110;82;20164;-71
2022/05/22 03:14:48;;;;;;;;;;;;;;;17.20;63.88;151975.61;1734121;82;20199;-70
2022/05/22 03:17:16;;;;;;;;;;;;;;;17.22;63.87;151980.81;1751120;81;21169;-70
2022/05/22 03:19:53;;;;;;;;;;;;;;;17.23;63.94;151983.44;1749988;81;20326;-71
2022/05/22 03:22:20;;;;;;;;;;;;;;;17.26;63.97;151989.97;1751029;81;20200;-69
2022/05/22 03:24:47;;;;;;;;;;;;;;;17.29;64.10;151997.78;1750659;81;20168;-71
2022/05/22 03:27:15;;;;;;;;;;;;;;;17.35;64.22;152012.14;1751182;82;20172;-69
2022/05/22 03:29:42;;;;;;;;;;;;;;;17.39;64.13;152023.89;1750307;80;21279;-71
2022/05/22 03:32:11;;;;;;;;;;;;;;;17.40;64.28;152026.48;1751230;81;20145;-72
2022/05/22 03:34:39;;;;;;;;;;;;;;;17.45;64.36;152039.52;1751139;81;20493;-71
2022/05/22 03:37:06;;;;;;;;;;;;;;;17.52;64.31;152055.16;1751234;81;20196;-73
2022/05/22 03:39:33;;;;;;;;;;;;;;;17.58;64.41;152070.83;1750766;80;20180;-71
2022/05/22 03:42:00;;;;;;;;;;;;;;;17.65;64.20;152089.06;1736396;81;22185;-72
2022/05/22 03:44:27;;;;;;;;;;;;;;;17.72;64.29;152107.31;1766765;81;20522;-73
2022/05/22 03:46:54;;;;;;;;;;;;;;;17.82;64.13;152130.81;1766228;81;20619;-70
2022/05/22 03:49:25;;;;;;;;;;;;;;;17.87;63.97;152143.84;1765713;81;20161;-71
2022/05/22 03:51:54;;;;;;;;;;;;;;;17.88;64.05;152146.45;1766492;81;20351;-71
2022/05/22 03:54:22;;;;;;;;;;;;;;;17.85;64.15;152139.91;1767003;81;21238;-71
2022/05/22 03:56:49;;;;;;;;;;;;;;;17.86;64.21;152141.25;1766057;81;20222;-69
2022/05/22 03:59:24;;;;;;;;;;;;;;;17.88;64.05;152146.45;1766692;81;20141;-69
2022/05/22 04:01:51;;;;;;;;;;;;;;;17.88;63.76;152146.45;1766685;81;20449;-68
2022/05/22 04:04:19;;;;;;;;;;;;;;;17.89;63.79;152149.06;1766691;80;20141;-69
2022/05/22 04:06:46;;;;;;;;;;;;;;;17.93;63.44;152159.48;1766579;81;21111;-70
2022/05/22 04:09:14;;;;;;;;;;;;;;;17.95;63.45;152164.70;1766570;80;20380;-69
2022/05/22 04:11:44;;;;;;;;;;;;;;;18.00;63.03;152176.45;1761860;81;20311;-68
2022/05/22 04:14:13;;;;;;;;;;;;;;;18.00;62.66;152177.73;1766324;81;20811;-72
2022/05/22 04:16:41;;;;;;;;;;;;;;;18.00;62.44;152177.73;1736575;81;20208;-69
2022/05/22 04:19:08;;;;;;;;;;;;;;;18.03;62.24;152184.31;1766571;81;21217;-70
2022/05/22 04:21:37;;;;;;;;;;;;;;;18.06;62.08;152192.14;1766036;81;20477;-69
2022/05/22 04:26:54;;;;;;;;;;;;;;;18.06;61.71;152190.86;1765335;81;20674;-69
2022/05/22 04:29:22;;;;;;;;;;;;;;;18.07;61.63;152193.47;1766157;81;20224;-72
2022/05/22 04:31:50;;;;;;;;;;;;;;;18.09;61.22;152198.69;1765763;78;21118;-71
2022/05/22 04:34:19;;;;;;;;;;;;;;;18.06;61.10;152192.14;1766220;81;20192;-69
2022/05/22 04:36:46;;;;;;;;;;;;;;;18.04;61.23;152188.25;1766287;81;20165;-68
2022/05/22 04:39:24;;;;;;;;;;;;;;;18.07;60.76;152193.47;1765052;81;20612;-69
2022/05/22 04:41:56;;;;;;;;;;;;;;;18.00;60.46;152177.73;1766130;81;20187;-69
2022/05/22 04:44:23;;;;;;;;;;;;;;;17.97;59.99;152169.91;1766885;81;21220;-69
2022/05/22 04:46:51;;;;;;;;;;;;;;;17.95;59.38;152164.70;1765158;81;20275;-69
2022/05/22 04:49:19;;;;;;;;;;;;;;;17.91;58.76;152154.28;1766745;81;20153;-71
2022/05/22 04:51:46;;;;;;;;;;;;;;;17.88;58.35;152147.73;1766909;81;20514;-71
2022/05/22 04:54:13;;;;;;;;;;;;;;;17.86;57.36;152142.52;1766645;81;20424;-71
2022/05/22 04:56:42;;;;;;;;;;;;;;;17.85;57.49;152138.64;1763923;81;21131;-71
2022/05/22 04:59:11;;;;;;;;;;;;;;;17.87;56.75;152145.13;1764578;81;20446;-70
2022/05/22 05:01:37;;;;;;;;;;;;;;;17.85;56.06;152139.91;1765746;81;20523;-73
2022/05/22 05:04:11;;;;;;;;;;;;;;;17.84;56.05;152136.03;1765918;81;20481;-72
2022/05/22 05:06:40;;;;;;;;;;;;;;;17.81;56.01;152129.48;1764029;81;20534;-73
2022/05/22 05:09:08;;;;;;;;;;;;;;;17.83;56.05;152133.42;1766222;81;21221;-72
2022/05/22 05:11:37;;;;;;;;;;;;;;;17.85;55.62;152138.64;1766783;79;20176;-70
2022/05/22 05:14:06;;;;;;;;;;;;;;;17.84;55.54;152136.03;1766692;81;20188;-72
2022/05/22 05:16:33;;;;;;;;;;;;;;;17.89;55.50;152149.06;1766430;81;20630;-73
2022/05/22 05:19:11;;;;;;;;;;;;;;;17.93;55.37;152159.48;1766586;81;20659;-70
2022/05/22 05:21:39;;;;;;;;;;;;;;;17.98;55.15;152171.23;1766852;81;21230;-69
2022/05/22 05:24:07;;;;;;;;;;;;;;;18.07;54.70;152193.47;1766706;81;20212;-71
2022/05/22 05:26:35;;;;;;;;;;;;;;;18.11;54.27;152203.89;1766932;81;20175;-72
2022/05/22 05:29:03;;;;;;;;;;;;;;;18.13;54.19;152209.11;1766858;81;20649;-72
2022/05/22 05:31:37;;;;;;;;;;;;;;;18.18;53.96;152222.14;1787154;78;20170;-70
2022/05/22 05:34:05;;;;;;;;;;;;;;;18.24;53.46;152236.50;1798968;78;21800;-69
2022/05/22 05:36:39;;;;;;;;;;;;;;;18.26;52.20;152243.03;1797222;79;20174;-69
2022/05/22 05:39:08;;;;;;;;;;;;;;;18.20;51.15;152227.36;1798554;79;20178;-70
2022/05/22 05:41:44;;;;;;;;;;;;;;;18.11;50.55;152203.89;1778350;79;20175;-70
2022/05/22 05:44:12;;;;;;;;;;;;;;;18.04;50.46;152188.25;1773688;81;20180;-71
2022/05/22 05:46:44;;;;;;;;;;;;;;;18.01;49.60;152179.06;1772222;80;21226;-71
2022/05/22 05:49:13;;;;;;;;;;;;;;;17.96;50.01;152166.03;1773533;81;20220;-70
2022/05/22 05:51:40;;;;;;;;;;;;;;;17.95;50.16;152164.70;1773482;81;20458;-73
2022/05/22 05:54:07;;;;;;;;;;;;;;;17.96;49.87;152167.31;1773565;81;20717;-72
2022/05/22 05:56:49;;;;;;;;;;;;;;;17.94;49.92;152160.81;1769594;80;20208;-70
2022/05/22 05:59:35;;;;;;;;;;;;;;;17.93;50.02;152159.48;1772740;80;21804;-73
2022/05/22 06:02:08;;;;;;;;;;;;;;;18.00;49.90;152176.45;1772525;80;20172;-72
2022/05/22 06:04:35;;;;;;;;;;;;;;;18.07;50.01;152193.47;1773062;80;20257;-74
2022/05/22 06:07:03;;;;;;;;;;;;;;;18.17;49.59;152219.53;1748948;81;20221;-71
2022/05/22 06:09:31;;;;;;;;;;;;;;;18.26;49.11;152243.03;1773180;81;20319;-70
2022/05/22 06:12:18;;;;;;;;;;;;;;;18.30;48.53;152253.47;1771409;80;21087;-71
2022/05/22 06:14:53;;;;;;;;;;;;;;;18.29;47.98;152249.53;1771445;80;20496;-72
2022/05/22 06:17:29;;;;;;;;;;;;;;;18.29;47.47;152249.53;1772634;81;20173;-72
2022/05/22 06:19:56;;;;;;;;;;;;;;;18.33;47.51;152259.97;1772719;81;20200;-70
2022/05/22 06:22:26;;;;;;;;;;;;;;;18.43;46.77;152286.09;1773409;81;20433;-71
2022/05/22 06:24:54;;;;;;;;;;;;;;;18.51;45.96;152304.34;1773237;81;21188;-70
2022/05/22 06:27:32;;;;;;;;;;;;;;;18.53;45.28;152310.88;1771110;80;20339;-71
2022/05/22 06:30:05;;;;;;;;;;;;;;;18.54;44.57;152313.48;1773235;81;20199;-72
2022/05/22 06:32:41;;;;;;;;;;;;;;;18.53;44.32;152309.55;1730516;80;20167;-70
2022/05/22 06:35:11;;;;;;;;;;;;;;;18.52;44.69;152306.94;1755697;80;20223;-71
2022/05/22 06:37:40;;;;;;;;;;;;;;;18.58;44.83;152323.91;1779562;80;21214;-69
2022/05/22 06:40:09;;;;;;;;;;;;;;;18.66;45.09;152342.16;1775960;79;20194;-69
2022/05/22 06:42:52;;;;;;;;;;;;;;;18.84;45.10;152389.16;1814305;79;20173;-69
2022/05/22 06:45:33;;;;;;;;;;;;;;;19.04;44.15;152438.81;1811640;79;20165;-71
2022/05/22 06:48:02;;;;;;;;;;;;;;;19.14;43.56;152464.94;1795334;79;20197;-73
2022/05/22 06:50:47;;;;;;;;;;;;;;;19.24;42.35;152488.41;1814498;78;20782;-72
2022/05/22 06:53:18;;;;;;;;;;;;;;;19.38;42.01;152524.98;1815391;78;20173;-71
2022/05/22 06:56:02;;;;;;;;;;;;;;;19.56;41.80;152570.66;1810467;77;20185;-74
2022/05/22 06:58:37;;;;;;;;;;;;;;;19.74;40.70;152616.34;1815498;79;20197;-71
2022/05/22 07:01:20;;;;;;;;;;;;;;;19.87;40.88;152647.70;1812764;78;20181;-73
2022/05/22 07:04:06;;;;;;;;;;;;;;;19.98;40.61;152676.47;1814856;79;21115;-72
2022/05/22 07:06:36;;;;;;;;;;;;;;;20.11;40.11;152709.11;1807228;78;20252;-72
2022/05/22 07:09:09;;;;;;;;;;;;;;;20.14;40.28;152715.66;1809251;79;20181;-74
2022/05/22 07:11:54;;;;;;;;;;;;;;;20.18;40.55;152726.09;1815408;79;20189;-73
2022/05/22 07:14:23;;;;;;;;;;;;;;;20.32;40.68;152761.38;1813168;79;20213;-74
2022/05/22 07:16:55;;;;;;;;;;;;;;;20.55;40.86;152818.84;1761666;78;21057;-71
2022/05/22 07:19:23;;;;;;;;;;;;;;;20.82;40.62;152888.16;1814429;79;20521;-72
2022/05/22 07:21:56;;;;;;;;;;;;;;;20.93;38.84;152914.31;1813876;78;20201;-72
2022/05/22 07:24:28;;;;;;;;;;;;;;;20.82;38.87;152888.16;1812516;79;20677;-73
2022/05/22 07:26:59;;;;;;;;;;;;;;;20.76;39.61;152872.44;1792669;79;20192;-73
2022/05/22 07:29:32;;;;;;;;;;;;;;;20.79;39.57;152879.00;1811760;78;21729;-74
2022/05/22 07:32:07;;;;;;;;;;;;;;;20.87;39.62;152901.22;1801430;79;20520;-73
2022/05/22 07:34:39;;;;;;;;;;;;;;;21.04;39.77;152944.38;1798414;79;20213;-75
2022/05/22 07:37:08;;;;;;;;;;;;;;;21.28;38.92;153003.16;1794092;79;20778;-74
2022/05/22 07:39:37;;;;;;;;;;;;;;;21.50;38.65;153058.06;1763730;79;20201;-71
2022/05/22 07:42:12;;;;;;;;;;;;;;;21.70;37.93;153110.41;1772274;80;21135;-73
2022/05/22 07:44:57;;;;;;;;;;;;;;;21.86;37.47;153149.66;1772212;81;20207;-73
2022/05/22 07:47:29;;;;;;;;;;;;;;;22.01;37.49;153188.89;1769329;80;20172;-74
2022/05/22 07:50:16;;;;;;;;;;;;;;;22.25;37.48;153249.03;1747950;81;20188;-71
2022/05/22 07:52:58;;;;;;;;;;;;;;;22.52;37.08;153315.77;1724142;81;20231;-72
2022/05/22 07:55:45;;;;;;;;;;;;;;;22.63;36.86;153343.23;1772355;81;22045;-73
2022/05/22 07:58:14;;;;;;;;;;;;;;;22.72;36.05;153366.81;1728019;81;20595;-72
2022/05/22 08:00:45;;;;;;;;;;;;;;;22.55;35.61;153323.66;1770704;80;20487;-72
2022/05/22 08:03:15;;;;;;;;;;;;;;;22.46;35.80;153301.36;1772721;81;20464;-71
2022/05/22 08:05:43;;;;;;;;;;;;;;;22.43;35.78;153293.47;1771147;80;20211;-71
2022/05/22 08:08:10;;;;;;;;;;;;;;;22.32;35.96;153266.00;1772795;81;21196;-70
2022/05/22 08:10:48;;;;;;;;;;;;;;;22.23;35.92;153243.81;1772052;80;20983;-70
2022/05/22 08:13:17;;;;;;;;;;;;;;;22.07;36.65;153201.95;1771679;80;20441;-72
2022/05/22 08:15:44;;;;;;;;;;;;;;;22.07;37.22;153201.95;1772712;81;20172;-72
2022/05/22 08:18:13;;;;;;;;;;;;;;;22.25;37.11;153249.03;1771906;80;20112;-72
2022/05/22 08:20:40;;;;;;;;;;;;;;;22.48;36.60;153306.64;1773276;81;21121;-73
2022/05/22 08:23:11;;;;;;;;;;;;;;;22.67;36.40;153353.73;1772906;81;20160;-72
2022/05/22 08:25:44;;;;;;;;;;;;;;;22.75;36.40;153374.66;1773022;81;20259;-73
2022/05/22 08:28:12;;;;;;;;;;;;;;;22.80;36.06;153386.44;1773461;80;20499;-71
2022/05/22 08:30:40;;;;;;;;;;;;;;;22.65;36.09;153348.47;1773163;81;20164;-71
2022/05/22 08:33:07;;;;;;;;;;;;;;;22.50;36.48;153311.88;1780633;80;21824;-71
2022/05/22 08:35:36;;;;;;;;;;;;;;;22.49;36.65;153309.25;1781841;80;20199;-71
2022/05/22 08:38:05;;;;;;;;;;;;;;;22.52;36.29;153317.09;1782225;80;32331;-71
2022/05/22 08:40:51;;;;;;;;;;;;;;;22.52;36.43;153315.77;1782351;80;20204;-70
2022/05/22 08:43:25;;;;;;;;;;;;;;;22.50;36.85;153311.88;1781979;80;20129;-70
2022/05/22 08:46:08;;;;;;;;;;;;;;;22.59;36.53;153334.11;1773443;80;21086;-70
2022/05/22 08:48:42;;;;;;;;;;;;;;;22.50;36.59;153311.88;1781513;79;20116;-72
2022/05/22 08:51:12;;;;;;;;;;;;;;;22.43;36.87;153294.80;1780487;80;20468;-70
2022/05/22 08:53:42;;;;;;;;;;;;;;;22.49;36.58;153309.25;1781704;80;20195;-70
2022/05/22 08:59:05;;;;;;;;;;;;;;;22.54;35.36;153321.00;1781970;79;20694;-70
2022/05/22 09:01:37;;;;;;;;;;;;;;;22.52;35.61;153315.77;1781447;80;20303;-69
2022/05/22 09:04:07;;;;;;;;;;;;;;;22.60;35.50;153338.00;1781842;80;20223;-70
2022/05/22 09:06:38;;;;;;;;;;;;;;;22.65;35.50;153348.47;1781860;80;20195;-70
2022/05/22 09:09:06;;;;;;;;;;;;;;;22.57;35.34;153328.88;1781685;80;20179;-71
2022/05/22 09:12:10;;;;;;;;;;;;;;;22.40;35.57;153285.62;1781798;80;21269;-69
2022/05/22 09:14:41;;;;;;;;;;;;;;;22.35;35.71;153272.56;1782280;80;20242;-70
2022/05/22 09:17:17;;;;;;;;;;;;;;;22.42;35.85;153290.86;1782001;80;20168;-71
2022/05/22 09:20:03;;;;;;;;;;;;;;;22.57;35.18;153330.16;1782310;80;20473;-74
2022/05/22 09:22:34;;;;;;;;;;;;;;;22.72;35.28;153368.09;1781788;79;20191;-74
2022/05/22 09:25:10;;;;;;;;;;;;;;;22.98;34.98;153433.50;1781885;80;21309;-74
2022/05/22 09:27:41;;;;;;;;;;;;;;;23.07;34.79;153455.75;1780511;80;20231;-75
2022/05/22 09:30:14;;;;;;;;;;;;;;;23.07;34.98;153455.75;1780515;79;20242;-74
2022/05/22 09:33:02;;;;;;;;;;;;;;;23.09;34.97;153460.98;1776068;80;20204;-73
2022/05/22 09:35:52;;;;;;;;;;;;;;;23.04;35.34;153449.23;1701511;83;20463;-74
2022/05/22 09:38:28;;;;;;;;;;;;;;;23.16;35.28;153479.33;1707275;81;21135;-73
2022/05/22 09:41:04;;;;;;;;;;;;;;;23.32;34.88;153518.61;1783171;79;20605;-73
2022/05/22 09:43:43;;;;;;;;;;;;;;;23.42;34.90;153544.81;1787477;79;20186;-74
2022/05/22 09:46:32;;;;;;;;;;;;;;;23.53;34.71;153570.95;1798833;79;20182;-73
2022/05/22 09:49:06;;;;;;;;;;;;;;;23.61;34.47;153593.22;1798636;79;20426;-73
2022/05/22 09:51:56;;;;;;;;;;;;;;;23.73;34.21;153623.31;1798676;79;21225;-73
2022/05/22 09:54:45;;;;;;;;;;;;;;;23.83;34.00;153648.19;1799009;79;20229;-73
2022/05/22 09:57:38;;;;;;;;;;;;;;;23.85;33.83;153652.14;1798774;79;20228;-75
2022/05/22 10:00:14;;;;;;;;;;;;;;;23.87;33.93;153658.70;1798790;79;20194;-73
2022/05/22 10:02:59;;;;;;;;;;;;;;;23.87;33.44;153657.38;1799339;79;20202;-73
2022/05/22 10:05:33;;;;;;;;;;;;;;;23.78;33.46;153633.83;1799062;79;21963;-74
2022/05/22 10:08:26;;;;;;;;;;;;;;;23.69;33.71;153611.58;1798304;79;20205;-73
2022/05/22 10:11:16;;;;;;;;;;;;;;;23.65;33.22;153602.39;1798500;79;20202;-75
2022/05/22 10:14:03;;;;;;;;;;;;;;;23.70;33.46;153615.47;1798649;79;20189;-73
2022/05/22 10:16:55;;;;;;;;;;;;;;;23.78;33.03;153633.83;1798541;79;20186;-74
2022/05/22 10:19:34;;;;;;;;;;;;;;;23.63;33.36;153597.16;1798803;79;20752;-74
2022/05/22 10:22:25;;;;;;;;;;;;;;;23.50;33.54;153564.44;1741744;78;20466;-74
2022/05/22 10:25:03;;;;;;;;;;;;;;;23.39;33.49;153536.97;1798370;79;20340;-72
2022/05/22 10:27:49;;;;;;;;;;;;;;;23.39;33.67;153535.63;1798346;79;20653;-74
2022/05/22 10:30:22;;;;;;;;;;;;;;;23.38;34.07;153534.34;1799239;79;20175;-72
2022/05/22 10:33:07;;;;;;;;;;;;;;;23.50;34.18;153563.11;1805724;79;22338;-73
2022/05/22 10:35:53;;;;;;;;;;;;;;;23.60;33.49;153589.31;1815786;79;20637;-73
2022/05/22 10:38:24;;;;;;;;;;;;;;;23.63;33.52;153597.16;1815978;79;20189;-73
2022/05/22 10:43:41;;;;;;;;;;;;;;;23.79;32.85;153636.45;1815912;79;20197;-73
2022/05/22 10:46:08;;;;;;;;;;;;;;;23.72;33.14;153620.70;1816092;79;20868;-75
2022/05/22 10:48:37;;;;;;;;;;;;;;;23.91;33.12;153667.84;1815810;79;20224;-73
2022/05/22 10:51:11;;;;;;;;;;;;;;;24.10;32.43;153715.03;1785430;79;20169;-73
2022/05/22 10:53:40;;;;;;;;;;;;;;;24.20;32.07;153739.91;1816015;78;20209;-74
2022/05/22 10:56:17;;;;;;;;;;;;;;;24.31;31.92;153768.69;1816164;79;20189;-75
2022/05/22 10:59:02;;;;;;;;;;;;;;;24.48;31.69;153811.94;1815303;79;20510;-73
2022/05/22 11:01:31;;;;;;;;;;;;;;;24.60;31.26;153843.34;1815857;79;20122;-74
2022/05/22 11:04:09;;;;;;;;;;;;;;;24.47;31.30;153809.33;1814972;79;20475;-75
2022/05/22 11:06:38;;;;;;;;;;;;;;;24.25;31.31;153754.33;1816346;79;20430;-74
2022/05/22 11:09:06;;;;;;;;;;;;;;;23.94;31.59;153675.69;1815783;79;20193;-75
2022/05/22 11:11:34;;;;;;;;;;;;;;;23.83;31.97;153646.91;1815469;79;21155;-74
2022/05/22 11:14:12;;;;;;;;;;;;;;;23.82;31.89;153644.30;1815604;79;20833;-74
2022/05/22 11:16:40;;;;;;;;;;;;;;;23.84;31.84;153649.53;1816024;79;20500;-75
2022/05/22 11:19:26;;;;;;;;;;;;;;;23.84;31.88;153649.53;1815378;79;20473;-73
2022/05/22 11:22:02;;;;;;;;;;;;;;;23.84;31.98;153650.81;1815965;79;20526;-74
2022/05/22 11:24:33;;;;;;;;;;;;;;;23.92;31.99;153669.17;1815662;79;21889;-73
2022/05/22 11:27:33;;;;;;;;;;;;;;;24.00;31.63;153691.44;1815269;78;20193;-73
2022/05/22 11:30:07;;;;;;;;;;;;;;;23.96;32.00;153679.64;1815174;79;20190;-74
2022/05/22 11:32:53;;;;;;;;;;;;;;;23.87;31.59;153657.38;1812484;79;20241;-75
2022/05/22 11:35:32;;;;;;;;;;;;;;;23.79;31.64;153636.45;1798774;79;20170;-71
2022/05/22 11:38:17;;;;;;;;;;;;;;;23.70;32.07;153614.19;1754491;79;21319;-70
2022/05/22 11:40:56;;;;;;;;;;;;;;;23.59;32.42;153587.98;1790725;79;20195;-70
2022/05/22 11:43:39;;;;;;;;;;;;;;;23.45;32.54;153552.66;1774715;79;20156;-69
2022/05/22 11:46:21;;;;;;;;;;;;;;;23.25;32.83;153500.25;1775125;80;20856;-70
2022/05/22 11:48:54;;;;;;;;;;;;;;;23.15;33.37;153475.39;1774990;80;20199;-69
2022/05/22 11:51:46;;;;;;;;;;;;;;;23.21;33.19;153489.78;1775064;79;21131;-71
2022/05/22 11:54:36;;;;;;;;;;;;;;;23.14;33.37;153472.77;1774565;80;20140;-70
2022/05/22 11:57:18;;;;;;;;;;;;;;;23.14;33.70;153474.11;1774455;79;20223;-71
2022/05/22 11:59:52;;;;;;;;;;;;;;;23.14;33.63;153474.11;1774292;80;20669;-71
2022/05/22 12:02:48;;;;;;;;;;;;;;;23.07;33.48;153454.47;1774267;80;20188;-70
2022/05/22 12:05:50;;;;;;;;;;;;;;;23.02;33.54;153442.67;1774947;79;21242;-69
2022/05/22 12:08:37;;;;;;;;;;;;;;;23.08;33.70;153458.36;1774102;80;20200;-70
2022/05/22 12:11:17;;;;;;;;;;;;;;;23.21;33.03;153489.78;1773792;79;20223;-70
2022/05/22 12:13:57;;;;;;;;;;;;;;;23.30;32.73;153514.72;1774114;79;20187;-70
2022/05/22 12:16:31;;;;;;;;;;;;;;;23.30;32.08;153513.38;1774728;80;20215;-70
2022/05/22 12:19:13;;;;;;;;;;;;;;;23.24;32.13;153497.64;1773941;80;21236;-71
2022/05/22 12:22:17;;;;;;;;;;;;;;;23.22;32.21;153492.41;1773659;79;20444;-70
2022/05/22 12:24:56;;;;;;;;;;;;;;;23.30;32.10;153513.38;1774666;80;20196;-70
2022/05/22 12:27:29;;;;;;;;;;;;;;;23.30;32.23;153513.38;1774539;79;20935;-69
2022/05/22 12:30:05;;;;;;;;;;;;;;;23.31;32.15;153517.31;1774060;79;20183;-70
2022/05/22 12:32:39;;;;;;;;;;;;;;;23.43;32.06;153547.42;1774392;80;21125;-70
2022/05/22 12:35:07;;;;;;;;;;;;;;;23.44;31.92;153548.75;1774777;80;20204;-69
2022/05/22 12:37:47;;;;;;;;;;;;;;;23.29;31.96;153512.09;1775109;79;20219;-70
2022/05/22 12:40:26;;;;;;;;;;;;;;;23.13;32.31;153471.48;1775144;80;20470;-69
2022/05/22 12:42:56;;;;;;;;;;;;;;;22.99;32.61;153434.83;1742085;80;20220;-70
2022/05/22 12:45:26;;;;;;;;;;;;;;;22.86;32.92;153402.13;1775308;79;21245;-70
2022/05/22 12:47:53;;;;;;;;;;;;;;;22.89;33.22;153409.97;1776168;80;20211;-70
2022/05/22 12:50:33;;;;;;;;;;;;;;;22.97;33.13;153430.87;1775062;80;20171;-70
2022/05/22 12:53:00;;;;;;;;;;;;;;;23.03;32.92;153445.28;1774497;80;20778;-70
2022/05/22 12:55:33;;;;;;;;;;;;;;;23.02;32.50;153444.00;1774907;80;20173;-69
2022/05/22 12:58:01;;;;;;;;;;;;;;;22.98;32.77;153433.50;1774495;80;21173;-70
2022/05/22 13:00:41;;;;;;;;;;;;;;;22.98;33.10;153432.22;1774568;79;20652;-70
2022/05/22 13:03:23;;;;;;;;;;;;;;;22.97;32.98;153430.87;1774616;80;20500;-71
2022/05/22 13:06:08;;;;;;;;;;;;;;;22.98;33.06;153433.50;1773881;80;20532;-70
2022/05/22 13:08:42;;;;;;;;;;;;;;;23.02;33.13;153444.00;1773315;79;20220;-69
2022/05/22 13:11:16;;;;;;;;;;;;;;;23.08;33.09;153458.36;1774374;80;21879;-70
2022/05/22 13:13:51;;;;;;;;;;;;;;;23.03;32.28;153445.28;1774102;79;20138;-70
2022/05/22 13:16:26;;;;;;;;;;;;;;;22.86;32.57;153402.13;1774299;80;20191;-70